Time;durP1;ratioP1;P1;durP2;ratioP2;P2;SDS_P1;SDS_P2;PMS_P1;PMS_P2;Temp;Humidity;BMP_temperature;BMP_pressure;BME280_temperature;BME280_humidity;BME280_pressure;Samples;Min_cycle;Max_cycle;Signal;HPM_P1;HPM_P2
2022/10/11 00:00:00;;;;;;;9.63;2.08;;;;;;;;;;623951;23;906;-61
2022/10/11 00:00:16;;;;;;;9.23;1.93;;;;;;;;;;620204;23;1213;-60
2022/10/11 00:00:34;;;;;;;10.75;2.05;;;;;;;;;;621892;23;940;-61
2022/10/11 00:00:51;;;;;;;10.75;2.15;;;;;;;;;;624701;23;947;-60
2022/10/11 00:01:06;;;;;;;8.48;1.95;;;;;;;;;;623579;23;1232;-62
2022/10/11 00:01:21;;;;;;;7.63;1.93;;;;;;;;;;627727;23;1017;-61
2022/10/11 00:01:36;;;;;;;9.53;2.00;;;;;;;;;;627463;23;887;-61
2022/10/11 00:01:52;;;;;;;11.55;2.30;;;;;;;;;;626550;23;1200;-61
2022/10/11 00:02:07;;;;;;;13.83;2.37;;;;;;;;;;623235;23;1169;-63
2022/10/11 00:02:23;;;;;;;13.33;2.30;;;;;;;;;;623739;23;1138;-61
2022/10/11 00:02:38;;;;;;;10.68;2.13;;;;;;;;;;623625;23;1386;-61
2022/10/11 00:02:53;;;;;;;10.53;2.13;;;;;;;;;;624335;23;1036;-61
2022/10/11 00:03:09;;;;;;;11.77;2.20;;;;;;;;;;624037;23;883;-62
2022/10/11 00:03:24;;;;;;;10.30;2.03;;;;;;;;;;623541;23;943;-60
2022/10/11 00:03:40;;;;;;;9.80;1.90;;;;;;;;;;624563;23;979;-61
2022/10/11 00:03:55;;;;;;;11.83;1.90;;;;;;;;;;625002;23;1380;-61
2022/10/11 00:04:10;;;;;;;11.57;2.07;;;;;;;;;;627729;23;918;-61
2022/10/11 00:04:25;;;;;;;11.70;2.27;;;;;;;;;;627979;23;984;-61
2022/10/11 00:04:41;;;;;;;12.93;2.40;;;;;;;;;;629004;23;1700;-61
2022/10/11 00:04:56;;;;;;;10.80;2.20;;;;;;;;;;630591;23;876;-61
2022/10/11 00:05:11;;;;;;;8.57;2.00;;;;;;;;;;627260;23;1291;-61
2022/10/11 00:05:27;;;;;;;7.85;1.83;;;;;;;;;;627257;23;1208;-61
2022/10/11 00:05:43;;;;;;;8.10;1.90;;;;;;;;;;626129;23;979;-61
2022/10/11 00:05:58;;;;;;;7.63;1.90;;;;;;;;;;623969;23;1292;-61
2022/10/11 00:06:13;;;;;;;7.63;1.83;;;;;;;;;;624587;23;887;-61
2022/10/11 00:06:29;;;;;;;8.68;2.03;;;;;;;;;;624674;23;1038;-60
2022/10/11 00:06:46;;;;;;;11.20;2.17;;;;;;;;;;624281;23;967;-61
2022/10/11 00:07:01;;;;;;;11.68;2.15;;;;;;;;;;623755;23;1097;-62
2022/10/11 00:07:17;;;;;;;11.37;2.40;;;;;;;;;;627609;23;1056;-62
2022/10/11 00:07:33;;;;;;;11.55;2.15;;;;;;;;;;628908;23;1237;-60
2022/10/11 00:07:48;;;;;;;8.93;1.83;;;;;;;;;;628988;23;911;-61
2022/10/11 00:08:04;;;;;;;8.30;1.90;;;;;;;;;;630098;23;871;-61
2022/10/11 00:08:20;;;;;;;10.15;1.90;;;;;;;;;;627283;23;1272;-61
2022/10/11 00:08:35;;;;;;;12.07;2.10;;;;;;;;;;624555;23;1249;-61
2022/10/11 00:08:50;;;;;;;11.33;2.17;;;;;;;;;;623891;23;894;-60
2022/10/11 00:09:06;;;;;;;10.98;2.30;;;;;;;;;;621099;23;1036;-61
2022/10/11 00:09:21;;;;;;;12.13;2.30;;;;;;;;;;621037;23;1902;-61
2022/10/11 00:09:37;;;;;;;11.73;2.30;;;;;;;;;;624369;23;1021;-61
2022/10/11 00:09:52;;;;;;;10.40;2.10;;;;;;;;;;623774;23;1019;-61
2022/10/11 00:10:08;;;;;;;9.50;1.90;;;;;;;;;;624242;23;1127;-61
2022/10/11 00:10:24;;;;;;;9.57;2.15;;;;;;;;;;624283;23;1340;-61
2022/10/11 00:10:39;;;;;;;12.37;2.20;;;;;;;;;;627100;23;868;-61
2022/10/11 00:10:57;;;;;;;13.05;2.30;;;;;;;;;;627964;23;1181;-61
2022/10/11 00:11:12;;;;;;;10.50;2.30;;;;;;;;;;627385;23;1382;-61
2022/10/11 00:11:27;;;;;;;9.37;2.07;;;;;;;;;;626857;23;1064;-60
2022/10/11 00:11:43;;;;;;;10.63;1.95;;;;;;;;;;624406;23;987;-61
2022/10/11 00:11:58;;;;;;;12.37;2.00;;;;;;;;;;621595;23;1337;-61
2022/10/11 00:12:14;;;;;;;11.60;2.20;;;;;;;;;;621510;23;1070;-61
2022/10/11 00:12:29;;;;;;;9.60;2.30;;;;;;;;;;624159;23;1129;-61
2022/10/11 00:12:44;;;;;;;8.17;2.00;;;;;;;;;;623099;23;1215;-60
2022/10/11 00:13:00;;;;;;;9.10;1.92;;;;;;;;;;621682;23;1456;-61
2022/10/11 00:13:16;;;;;;;8.18;1.90;;;;;;;;;;623491;23;983;-61
2022/10/11 00:13:32;;;;;;;8.40;2.00;;;;;;;;;;624914;23;1022;-61
2022/10/11 00:13:47;;;;;;;10.27;2.13;;;;;;;;;;627080;23;966;-61
2022/10/11 00:14:03;;;;;;;8.80;2.00;;;;;;;;;;629914;23;868;-61
2022/10/11 00:14:18;;;;;;;11.38;2.20;;;;;;;;;;629686;23;890;-61
2022/10/11 00:14:33;;;;;;;12.15;2.22;;;;;;;;;;630546;23;902;-61
2022/10/11 00:14:49;;;;;;;10.07;2.17;;;;;;;;;;630020;23;949;-62
2022/10/11 00:15:05;;;;;;;9.80;2.07;;;;;;;;;;630320;23;905;-61
2022/10/11 00:15:21;;;;;;;9.05;1.90;;;;;;;;;;630094;23;1002;-61
2022/10/11 00:15:39;;;;;;;11.40;2.08;;;;;;;;;;630593;23;1016;-61
2022/10/11 00:15:55;;;;;;;11.50;2.05;;;;;;;;;;630018;23;922;-61
2022/10/11 00:16:11;;;;;;;9.60;1.97;;;;;;;;;;629884;23;1006;-61
2022/10/11 00:16:26;;;;;;;11.13;2.10;;;;;;;;;;630839;23;877;-62
2022/10/11 00:16:43;;;;;;;11.80;2.08;;;;;;;;;;631032;23;930;-61
2022/10/11 00:16:58;;;;;;;8.70;1.85;;;;;;;;;;630357;23;1003;-61
2022/10/11 00:17:14;;;;;;;9.60;1.97;;;;;;;;;;626258;23;967;-61
2022/10/11 00:17:30;;;;;;;10.10;2.00;;;;;;;;;;627213;23;1029;-61
2022/10/11 00:17:46;;;;;;;10.05;2.22;;;;;;;;;;627539;23;887;-61
2022/10/11 00:18:01;;;;;;;10.45;2.17;;;;;;;;;;626411;23;971;-61
2022/10/11 00:18:16;;;;;;;10.57;1.90;;;;;;;;;;626301;23;1028;-61
2022/10/11 00:18:32;;;;;;;9.83;1.90;;;;;;;;;;624263;23;1291;-62
2022/10/11 00:18:47;;;;;;;10.27;2.00;;;;;;;;;;624867;23;1018;-60
2022/10/11 00:19:02;;;;;;;13.25;2.08;;;;;;;;;;628213;23;971;-61
2022/10/11 00:19:18;;;;;;;13.10;2.27;;;;;;;;;;629673;23;931;-61
2022/10/11 00:19:33;;;;;;;11.02;2.40;;;;;;;;;;627402;23;825;-61
2022/10/11 00:19:48;;;;;;;11.80;2.30;;;;;;;;;;627471;23;935;-61
2022/10/11 00:20:04;;;;;;;11.93;2.30;;;;;;;;;;626951;23;1173;-61
2022/10/11 00:20:20;;;;;;;10.90;2.20;;;;;;;;;;627535;23;903;-61
2022/10/11 00:20:35;;;;;;;10.60;2.10;;;;;;;;;;628724;23;1105;-60
2022/10/11 00:20:59;;;;;;;11.07;2.00;;;;;;;;;;630303;23;1285;-60
2022/10/11 00:21:15;;;;;;;9.77;2.00;;;;;;;;;;627493;23;1229;-61
2022/10/11 00:21:30;;;;;;;11.13;2.33;;;;;;;;;;630199;23;916;-61
2022/10/11 00:21:46;;;;;;;9.90;2.17;;;;;;;;;;630637;23;938;-60
2022/10/11 00:22:01;;;;;;;9.23;1.90;;;;;;;;;;627552;23;1169;-61
2022/10/11 00:22:17;;;;;;;10.67;2.43;;;;;;;;;;625324;23;895;-61
2022/10/11 00:22:34;;;;;;;12.38;2.50;;;;;;;;;;627095;23;1023;-61
2022/10/11 00:22:49;;;;;;;10.32;1.92;;;;;;;;;;627770;23;1022;-61
2022/10/11 00:23:05;;;;;;;9.73;2.00;;;;;;;;;;628562;23;903;-60
2022/10/11 00:23:20;;;;;;;10.48;2.00;;;;;;;;;;625708;23;1308;-60
2022/10/11 00:23:35;;;;;;;11.33;1.90;;;;;;;;;;624401;23;1205;-60
2022/10/11 00:23:51;;;;;;;11.23;2.20;;;;;;;;;;624691;23;868;-61
2022/10/11 00:24:06;;;;;;;9.35;2.20;;;;;;;;;;624768;23;870;-60
2022/10/11 00:24:21;;;;;;;9.03;1.97;;;;;;;;;;624041;23;894;-61
2022/10/11 00:24:37;;;;;;;9.93;2.00;;;;;;;;;;623128;23;931;-61
2022/10/11 00:24:52;;;;;;;10.07;2.00;;;;;;;;;;624184;23;1166;-60
2022/10/11 00:25:09;;;;;;;9.30;2.00;;;;;;;;;;624875;23;983;-61
2022/10/11 00:25:25;;;;;;;10.13;2.10;;;;;;;;;;628788;23;875;-60
2022/10/11 00:25:40;;;;;;;10.00;2.00;;;;;;;;;;630023;23;935;-61
2022/10/11 00:26:00;;;;;;;9.33;1.90;;;;;;;;;;630433;23;959;-61
2022/10/11 00:26:16;;;;;;;9.32;2.05;;;;;;;;;;629521;23;867;-61
2022/10/11 00:26:32;;;;;;;8.65;2.03;;;;;;;;;;627254;23;1248;-61
2022/10/11 00:26:47;;;;;;;9.68;1.92;;;;;;;;;;624434;23;1205;-62
2022/10/11 00:27:02;;;;;;;10.87;2.00;;;;;;;;;;624490;23;817;-62
2022/10/11 00:27:18;;;;;;;10.67;2.00;;;;;;;;;;624100;23;971;-62
2022/10/11 00:27:34;;;;;;;10.25;1.90;;;;;;;;;;624351;23;1116;-61
2022/10/11 00:27:49;;;;;;;10.07;1.80;;;;;;;;;;624332;23;1209;-61
2022/10/11 00:28:05;;;;;;;10.17;1.80;;;;;;;;;;624370;23;1268;-61
2022/10/11 00:28:20;;;;;;;10.90;1.80;;;;;;;;;;625028;23;1439;-61
2022/10/11 00:28:36;;;;;;;13.00;2.00;;;;;;;;;;625991;23;1002;-60
2022/10/11 00:28:51;;;;;;;14.15;2.40;;;;;;;;;;624278;23;1265;-61
2022/10/11 00:29:07;;;;;;;11.90;2.23;;;;;;;;;;624273;23;855;-61
2022/10/11 00:29:22;;;;;;;11.18;2.08;;;;;;;;;;624548;23;1941;-61
2022/10/11 00:29:37;;;;;;;11.63;2.10;;;;;;;;;;623765;23;869;-62
2022/10/11 00:29:53;;;;;;;12.47;2.37;;;;;;;;;;620360;23;1356;-61
2022/10/11 00:30:09;;;;;;;13.48;2.40;;;;;;;;;;621978;23;1010;-61
2022/10/11 00:30:24;;;;;;;11.25;2.10;;;;;;;;;;624548;23;1222;-60
2022/10/11 00:30:42;;;;;;;12.15;2.00;;;;;;;;;;623978;23;1085;-61
2022/10/11 00:30:58;;;;;;;13.25;2.08;;;;;;;;;;627437;23;907;-61
2022/10/11 00:31:17;;;;;;;11.52;2.20;;;;;;;;;;628478;23;989;-60
2022/10/11 00:31:32;;;;;;;10.75;2.10;;;;;;;;;;625619;23;1346;-62
2022/10/11 00:31:47;;;;;;;9.27;1.90;;;;;;;;;;629554;23;907;-61
2022/10/11 00:32:03;;;;;;;11.45;2.00;;;;;;;;;;630361;23;879;-61
2022/10/11 00:32:19;;;;;;;13.20;2.38;;;;;;;;;;630699;23;915;-60
2022/10/11 00:32:35;;;;;;;11.50;2.20;;;;;;;;;;629105;23;902;-61
2022/10/11 00:32:51;;;;;;;10.85;2.08;;;;;;;;;;627545;23;1335;-61
2022/10/11 00:33:06;;;;;;;10.80;2.03;;;;;;;;;;627548;23;926;-61
2022/10/11 00:33:21;;;;;;;11.53;2.13;;;;;;;;;;627673;23;1034;-60
2022/10/11 00:33:37;;;;;;;10.60;2.25;;;;;;;;;;626240;23;1216;-60
2022/10/11 00:33:53;;;;;;;9.70;2.07;;;;;;;;;;626938;23;940;-62
2022/10/11 00:34:10;;;;;;;11.68;2.30;;;;;;;;;;627334;23;864;-61
2022/10/11 00:34:26;;;;;;;13.23;2.75;;;;;;;;;;623437;23;1411;-62
2022/10/11 00:34:41;;;;;;;12.20;2.17;;;;;;;;;;624801;23;1017;-61
2022/10/11 00:34:58;;;;;;;12.47;2.23;;;;;;;;;;626672;23;895;-61
2022/10/11 00:35:13;;;;;;;12.27;2.28;;;;;;;;;;627649;23;954;-60
2022/10/11 00:35:29;;;;;;;11.37;2.10;;;;;;;;;;625079;23;1241;-61
2022/10/11 00:35:44;;;;;;;11.90;2.10;;;;;;;;;;627391;23;986;-60
2022/10/11 00:36:00;;;;;;;11.43;2.10;;;;;;;;;;626749;23;858;-60
2022/10/11 00:36:16;;;;;;;10.40;2.20;;;;;;;;;;628230;23;797;-61
2022/10/11 00:36:31;;;;;;;11.95;2.17;;;;;;;;;;629503;23;960;-61
2022/10/11 00:36:46;;;;;;;10.57;1.95;;;;;;;;;;630219;23;1112;-62
2022/10/11 00:37:02;;;;;;;11.00;2.00;;;;;;;;;;629785;23;822;-62
2022/10/11 00:37:17;;;;;;;11.80;2.10;;;;;;;;;;630365;23;826;-60
2022/10/11 00:37:35;;;;;;;13.57;2.15;;;;;;;;;;630237;23;868;-61
2022/10/11 00:37:50;;;;;;;14.70;2.28;;;;;;;;;;631130;23;1755;-61
2022/10/11 00:38:05;;;;;;;12.73;2.00;;;;;;;;;;630210;23;952;-61
2022/10/11 00:38:20;;;;;;;11.75;2.00;;;;;;;;;;630249;23;1299;-61
2022/10/11 00:38:36;;;;;;;12.43;2.20;;;;;;;;;;629803;23;1136;-61
2022/10/11 00:38:51;;;;;;;12.93;2.23;;;;;;;;;;630165;23;1117;-61
2022/10/11 00:39:07;;;;;;;11.45;1.98;;;;;;;;;;630637;23;894;-62
2022/10/11 00:39:22;;;;;;;10.07;2.00;;;;;;;;;;629656;23;926;-60
2022/10/11 00:39:37;;;;;;;10.40;2.20;;;;;;;;;;630554;23;1053;-61
2022/10/11 00:39:53;;;;;;;12.50;2.00;;;;;;;;;;629417;23;931;-60
2022/10/11 00:40:15;;;;;;;11.77;2.13;;;;;;;;;;630782;23;859;-61
2022/10/11 00:40:30;;;;;;;10.40;2.22;;;;;;;;;;629347;23;1266;-60
2022/10/11 00:40:46;;;;;;;11.40;2.00;;;;;;;;;;626768;23;1058;-61
2022/10/11 00:41:01;;;;;;;12.97;2.00;;;;;;;;;;627319;23;927;-61
2022/10/11 00:41:17;;;;;;;10.65;1.85;;;;;;;;;;626611;23;934;-61
2022/10/11 00:41:32;;;;;;;10.80;1.90;;;;;;;;;;627290;23;986;-62
2022/10/11 00:41:48;;;;;;;10.80;2.33;;;;;;;;;;627115;23;1209;-61
2022/10/11 00:42:03;;;;;;;11.40;2.40;;;;;;;;;;627560;23;1766;-61
2022/10/11 00:42:18;;;;;;;12.60;2.22;;;;;;;;;;628026;23;863;-64
2022/10/11 00:42:34;;;;;;;12.83;2.20;;;;;;;;;;629594;23;947;-61
2022/10/11 00:42:49;;;;;;;12.73;2.10;;;;;;;;;;632374;23;876;-61
2022/10/11 00:43:15;;;;;;;11.80;2.20;;;;;;;;;;633455;23;910;-61
2022/10/11 00:43:31;;;;;;;10.63;1.95;;;;;;;;;;630428;23;1346;-61
2022/10/11 00:43:46;;;;;;;9.07;1.85;;;;;;;;;;627924;23;982;-61
2022/10/11 00:44:21;;;;;;;10.37;2.07;;;;;;;;;;626520;23;863;-62
2022/10/11 00:44:36;;;;;;;10.65;2.10;;;;;;;;;;630439;23;1060;-61
2022/10/11 00:45:11;;;;;;;10.43;2.03;;;;;;;;;;627555;23;1181;-61
2022/10/11 00:45:26;;;;;;;11.48;2.25;;;;;;;;;;629258;23;907;-61
2022/10/11 00:45:58;;;;;;;11.00;2.30;;;;;;;;;;630328;23;1006;-62
2022/10/11 00:46:26;;;;;;;12.07;2.20;;;;;;;;;;630778;23;897;-61
2022/10/11 00:46:45;;;;;;;9.83;1.90;;;;;;;;;;627711;23;1382;-62
2022/10/11 00:47:03;;;;;;;8.80;1.80;;;;;;;;;;629139;23;1005;-61
2022/10/11 00:47:23;;;;;;;7.75;1.83;;;;;;;;;;626859;23;1402;-61
2022/10/11 00:47:39;;;;;;;12.15;2.00;;;;;;;;;;625343;23;955;-61
2022/10/11 00:47:58;;;;;;;12.85;2.00;;;;;;;;;;627747;23;1053;-62
2022/10/11 00:48:21;;;;;;;9.57;1.88;;;;;;;;;;627523;23;1014;-61
2022/10/11 00:48:44;;;;;;;11.77;2.00;;;;;;;;;;629541;23;839;-62
2022/10/11 00:49:05;;;;;;;10.20;1.98;;;;;;;;;;627483;23;1260;-61
2022/10/11 00:49:32;;;;;;;8.07;2.00;;;;;;;;;;625686;23;2028;-62
2022/10/11 00:49:59;;;;;;;12.80;2.20;;;;;;;;;;627498;23;894;-61
2022/10/11 00:50:16;;;;;;;11.65;2.20;;;;;;;;;;627152;23;1109;-61
2022/10/11 00:50:34;;;;;;;11.77;2.13;;;;;;;;;;627655;23;880;-62
2022/10/11 00:50:49;;;;;;;10.55;1.95;;;;;;;;;;627038;23;922;-62
2022/10/11 00:51:14;;;;;;;10.93;2.10;;;;;;;;;;630596;23;1167;-62
2022/10/11 00:51:35;;;;;;;11.00;1.90;;;;;;;;;;630298;23;867;-61
2022/10/11 00:52:00;;;;;;;10.55;1.92;;;;;;;;;;629326;23;1304;-61
2022/10/11 00:52:19;;;;;;;13.30;2.20;;;;;;;;;;630263;23;981;-61
2022/10/11 00:52:41;;;;;;;13.50;2.30;;;;;;;;;;630468;23;1029;-61
2022/10/11 00:53:00;;;;;;;11.77;2.30;;;;;;;;;;626461;23;1445;-62
2022/10/11 00:53:15;;;;;;;9.98;2.10;;;;;;;;;;627221;23;867;-62
2022/10/11 00:53:31;;;;;;;10.30;1.93;;;;;;;;;;624418;23;989;-61
2022/10/11 00:53:49;;;;;;;11.25;2.08;;;;;;;;;;626041;23;920;-61
2022/10/11 00:54:08;;;;;;;12.75;2.22;;;;;;;;;;627368;23;1053;-61
2022/10/11 00:54:27;;;;;;;11.65;2.15;;;;;;;;;;627516;23;915;-62
2022/10/11 00:54:45;;;;;;;11.88;2.40;;;;;;;;;;627573;23;955;-62
2022/10/11 00:55:17;;;;;;;12.40;2.20;;;;;;;;;;630490;23;978;-61
2022/10/11 00:55:38;;;;;;;11.40;2.17;;;;;;;;;;630192;23;1165;-61
2022/10/11 00:56:00;;;;;;;8.07;1.90;;;;;;;;;;630478;23;1018;-61
2022/10/11 00:56:24;;;;;;;10.88;2.00;;;;;;;;;;631088;23;863;-62
2022/10/11 00:56:41;;;;;;;11.40;1.92;;;;;;;;;;630332;23;1287;-63
2022/10/11 00:57:04;;;;;;;11.23;2.10;;;;;;;;;;626855;23;1368;-62
2022/10/11 00:57:23;;;;;;;12.55;2.30;;;;;;;;;;627553;23;915;-61
2022/10/11 00:57:42;;;;;;;10.95;2.00;;;;;;;;;;625608;23;1014;-61
2022/10/11 00:57:57;;;;;;;10.40;2.00;;;;;;;;;;627322;23;948;-62
2022/10/11 00:58:13;;;;;;;9.55;2.00;;;;;;;;;;627198;23;823;-62
2022/10/11 00:58:30;;;;;;;10.50;2.07;;;;;;;;;;628090;23;903;-62
2022/10/11 00:58:45;;;;;;;12.27;2.10;;;;;;;;;;630465;23;1123;-62
2022/10/11 00:59:04;;;;;;;11.23;2.00;;;;;;;;;;630486;23;1482;-61
2022/10/11 00:59:23;;;;;;;12.85;2.20;;;;;;;;;;629138;23;1367;-62
2022/10/11 00:59:44;;;;;;;11.55;2.00;;;;;;;;;;630175;23;863;-61
2022/10/11 01:00:00;;;;;;;9.38;1.98;;;;;;;;;;630265;23;2033;-62
2022/10/11 01:00:16;;;;;;;10.50;2.10;;;;;;;;;;631054;23;797;-62
2022/10/11 01:00:31;;;;;;;10.00;2.20;;;;;;;;;;627722;23;1304;-61
2022/10/11 01:00:46;;;;;;;9.67;2.20;;;;;;;;;;626525;23;1137;-62
2022/10/11 01:01:02;;;;;;;11.23;2.00;;;;;;;;;;629836;23;882;-61
2022/10/11 01:01:17;;;;;;;12.43;2.20;;;;;;;;;;628534;23;856;-61
2022/10/11 01:01:33;;;;;;;10.30;2.20;;;;;;;;;;627503;23;994;-61
2022/10/11 01:01:48;;;;;;;9.90;1.97;;;;;;;;;;627193;23;1269;-62
2022/10/11 01:02:05;;;;;;;11.60;2.22;;;;;;;;;;626186;23;912;-61
2022/10/11 01:02:22;;;;;;;12.68;2.47;;;;;;;;;;626290;23;942;-61
2022/10/11 01:02:39;;;;;;;13.73;2.40;;;;;;;;;;627200;23;1876;-61
2022/10/11 01:02:54;;;;;;;13.52;2.30;;;;;;;;;;626501;23;955;-62
2022/10/11 01:03:09;;;;;;;12.30;2.10;;;;;;;;;;627308;23;850;-62
2022/10/11 01:03:27;;;;;;;11.35;2.08;;;;;;;;;;627395;23;999;-61
2022/10/11 01:03:43;;;;;;;10.95;2.10;;;;;;;;;;629210;23;943;-61
2022/10/11 01:04:01;;;;;;;11.73;2.20;;;;;;;;;;628664;23;987;-61
2022/10/11 01:04:16;;;;;;;11.80;2.28;;;;;;;;;;627692;23;1188;-62
2022/10/11 01:04:33;;;;;;;11.63;2.20;;;;;;;;;;629102;23;916;-61
2022/10/11 01:04:49;;;;;;;10.68;2.13;;;;;;;;;;626369;23;1350;-61
2022/10/11 01:05:07;;;;;;;10.63;2.10;;;;;;;;;;627435;23;1038;-61
2022/10/11 01:05:22;;;;;;;12.20;2.20;;;;;;;;;;627435;23;1426;-62
2022/10/11 01:05:38;;;;;;;11.40;2.20;;;;;;;;;;626433;23;847;-61
2022/10/11 01:05:54;;;;;;;12.90;2.35;;;;;;;;;;626269;23;1231;-61
2022/10/11 01:06:09;;;;;;;12.27;2.30;;;;;;;;;;628818;23;978;-61
2022/10/11 01:06:25;;;;;;;12.23;2.53;;;;;;;;;;630514;23;994;-61
2022/10/11 01:06:40;;;;;;;14.20;2.87;;;;;;;;;;631311;23;944;-62
2022/10/11 01:06:57;;;;;;;13.55;2.50;;;;;;;;;;632656;23;942;-61
2022/10/11 01:07:12;;;;;;;14.65;2.60;;;;;;;;;;632422;23;970;-61
2022/10/11 01:07:30;;;;;;;13.10;2.60;;;;;;;;;;630478;23;1048;-61
2022/10/11 01:07:46;;;;;;;11.25;2.22;;;;;;;;;;630322;23;898;-61
2022/10/11 01:08:02;;;;;;;12.45;2.20;;;;;;;;;;629412;23;982;-61
2022/10/11 01:08:18;;;;;;;12.25;2.30;;;;;;;;;;630717;23;909;-61
2022/10/11 01:08:33;;;;;;;11.40;2.13;;;;;;;;;;630273;23;943;-61
2022/10/11 01:08:50;;;;;;;11.55;2.20;;;;;;;;;;630444;23;1149;-61
2022/10/11 01:09:05;;;;;;;12.68;2.28;;;;;;;;;;629712;23;867;-62
2022/10/11 01:09:21;;;;;;;10.77;2.10;;;;;;;;;;630164;23;1901;-61
2022/10/11 01:09:36;;;;;;;12.00;2.17;;;;;;;;;;629626;23;1016;-62
2022/10/11 01:09:52;;;;;;;13.97;2.33;;;;;;;;;;630753;23;1242;-62
2022/10/11 01:10:07;;;;;;;11.60;2.50;;;;;;;;;;626124;23;1299;-63
2022/10/11 01:10:22;;;;;;;11.00;2.55;;;;;;;;;;628357;23;972;-61
2022/10/11 01:10:38;;;;;;;11.17;2.30;;;;;;;;;;627046;23;1102;-62
2022/10/11 01:10:54;;;;;;;11.05;2.22;;;;;;;;;;626840;23;868;-61
2022/10/11 01:11:14;;;;;;;11.85;2.25;;;;;;;;;;627408;23;946;-62
2022/10/11 01:11:30;;;;;;;11.68;2.42;;;;;;;;;;626256;23;1299;-61
2022/10/11 01:11:47;;;;;;;12.60;2.33;;;;;;;;;;628947;23;1214;-62
2022/10/11 01:12:11;;;;;;;11.23;2.17;;;;;;;;;;629548;23;1069;-64
2022/10/11 01:12:28;;;;;;;13.38;2.53;;;;;;;;;;627612;23;962;-61
2022/10/11 01:12:54;;;;;;;14.93;2.80;;;;;;;;;;627760;23;918;-62
2022/10/11 01:13:28;;;;;;;9.95;2.50;;;;;;;;;;625206;23;1224;-62
2022/10/11 01:13:53;;;;;;;11.70;2.05;;;;;;;;;;624482;23;1368;-62
2022/10/11 01:14:34;;;;;;;11.05;2.30;;;;;;;;;;625253;23;1022;-61
2022/10/11 01:14:50;;;;;;;12.10;2.53;;;;;;;;;;626465;23;1053;-62
2022/10/11 01:15:14;;;;;;;11.03;2.40;;;;;;;;;;629097;23;947;-61
2022/10/11 01:15:43;;;;;;;11.48;2.22;;;;;;;;;;630171;23;1063;-61
2022/10/11 01:16:16;;;;;;;12.45;2.75;;;;;;;;;;633660;23;953;-62
2022/10/11 01:16:53;;;;;;;10.40;2.33;;;;;;;;;;629497;23;1263;-62
2022/10/11 01:17:15;;;;;;;10.32;2.28;;;;;;;;;;626064;23;1358;-61
2022/10/11 01:17:53;;;;;;;11.95;2.40;;;;;;;;;;627448;23;879;-62
2022/10/11 01:18:26;;;;;;;12.50;2.50;;;;;;;;;;612833;24;1174;-61
2022/10/11 01:19:00;;;;;;;12.43;2.10;;;;;;;;;;615682;24;1016;-61
2022/10/11 01:19:47;;;;;;;13.73;2.60;;;;;;;;;;625258;23;935;-61
2022/10/11 01:20:26;;;;;;;12.20;2.35;;;;;;;;;;618475;23;1165;-62
2022/10/11 01:20:52;;;;;;;12.82;2.50;;;;;;;;;;621144;23;1325;-62
2022/10/11 01:21:16;;;;;;;11.32;2.47;;;;;;;;;;625500;23;1997;-61
2022/10/11 01:21:51;;;;;;;10.73;2.53;;;;;;;;;;624331;23;943;-62
2022/10/11 01:22:18;;;;;;;9.75;2.45;;;;;;;;;;627445;23;1054;-62
2022/10/11 01:22:53;;;;;;;13.13;2.30;;;;;;;;;;625117;23;880;-62
2022/10/11 01:23:27;;;;;;;11.27;2.47;;;;;;;;;;630458;23;1125;-61
2022/10/11 01:23:52;;;;;;;11.15;2.33;;;;;;;;;;626814;23;1442;-61
2022/10/11 01:24:33;;;;;;;11.90;2.33;;;;;;;;;;627461;23;950;-61
2022/10/11 01:25:05;;;;;;;11.05;2.47;;;;;;;;;;629272;23;1064;-62
2022/10/11 01:26:06;;;;;;;12.88;2.50;;;;;;;;;;626971;23;1347;-62
2022/10/11 01:26:27;;;;;;;12.18;2.50;;;;;;;;;;620042;23;1347;-62
2022/10/11 01:27:04;;;;;;;11.45;2.30;;;;;;;;;;620666;23;1098;-62
2022/10/11 01:27:34;;;;;;;12.48;2.50;;;;;;;;;;621433;23;999;-62
2022/10/11 01:28:20;;;;;;;12.57;2.50;;;;;;;;;;630283;23;906;-61
2022/10/11 01:28:49;;;;;;;11.27;2.33;;;;;;;;;;630136;23;1414;-61
2022/10/11 01:29:34;;;;;;;12.35;2.47;;;;;;;;;;626851;23;878;-61
2022/10/11 01:30:17;;;;;;;7.50;2.20;;;;;;;;;;624429;23;962;-61
2022/10/11 01:30:35;;;;;;;8.70;2.15;;;;;;;;;;624784;23;964;-62
2022/10/11 01:30:51;;;;;;;9.80;2.25;;;;;;;;;;627077;23;1011;-61
2022/10/11 01:31:14;;;;;;;12.90;2.60;;;;;;;;;;630669;23;839;-61
2022/10/11 01:31:41;;;;;;;11.25;2.45;;;;;;;;;;630508;23;880;-61
2022/10/11 01:32:06;;;;;;;10.20;2.20;;;;;;;;;;633849;23;866;-62
2022/10/11 01:32:52;;;;;;;10.60;2.15;;;;;;;;;;633923;23;840;-61
2022/10/11 01:33:28;;;;;;;8.65;2.17;;;;;;;;;;630996;23;900;-61
2022/10/11 01:33:54;;;;;;;12.00;2.33;;;;;;;;;;629364;23;1079;-61
2022/10/11 01:34:15;;;;;;;9.82;2.35;;;;;;;;;;629963;23;953;-62
2022/10/11 01:34:46;;;;;;;10.73;2.33;;;;;;;;;;630504;23;987;-61
2022/10/11 01:35:09;;;;;;;11.10;2.20;;;;;;;;;;625947;23;1007;-61
2022/10/11 01:35:31;;;;;;;13.90;2.42;;;;;;;;;;626861;23;1283;-61
2022/10/11 01:36:04;;;;;;;12.18;2.30;;;;;;;;;;627855;23;1065;-61
2022/10/11 01:36:27;;;;;;;7.18;1.98;;;;;;;;;;630275;23;951;-61
2022/10/11 01:37:05;;;;;;;11.52;2.17;;;;;;;;;;627230;23;869;-62
2022/10/11 01:37:32;;;;;;;13.15;2.15;;;;;;;;;;629532;23;1029;-62
2022/10/11 01:37:58;;;;;;;9.43;2.00;;;;;;;;;;630119;23;965;-61
2022/10/11 01:38:24;;;;;;;8.93;1.90;;;;;;;;;;630552;23;1053;-61
2022/10/11 01:38:52;;;;;;;10.60;2.30;;;;;;;;;;627496;23;963;-62
2022/10/11 01:39:13;;;;;;;11.13;2.33;;;;;;;;;;627240;23;1319;-61
2022/10/11 01:39:40;;;;;;;10.60;2.20;;;;;;;;;;626708;23;969;-61
2022/10/11 01:40:22;;;;;;;13.48;2.35;;;;;;;;;;626058;23;1021;-61
2022/10/11 01:40:54;;;;;;;13.98;2.38;;;;;;;;;;616303;23;987;-62
2022/10/11 01:41:20;;;;;;;11.00;2.35;;;;;;;;;;632300;23;1065;-60
2022/10/11 01:41:41;;;;;;;13.60;2.33;;;;;;;;;;629331;23;1232;-61
2022/10/11 01:41:59;;;;;;;10.68;2.20;;;;;;;;;;627450;23;1014;-60
2022/10/11 01:42:17;;;;;;;11.03;2.30;;;;;;;;;;624443;23;1381;-62
2022/10/11 01:42:37;;;;;;;11.18;2.35;;;;;;;;;;625528;23;880;-61
2022/10/11 01:42:54;;;;;;;12.25;2.28;;;;;;;;;;623610;23;1467;-62
2022/10/11 01:43:10;;;;;;;12.77;2.25;;;;;;;;;;623934;23;875;-61
2022/10/11 01:43:26;;;;;;;10.23;2.22;;;;;;;;;;625587;23;851;-61
2022/10/11 01:43:43;;;;;;;11.27;2.25;;;;;;;;;;627215;23;979;-63
2022/10/11 01:44:00;;;;;;;13.68;2.30;;;;;;;;;;623779;23;1374;-61
2022/10/11 01:44:16;;;;;;;16.02;2.35;;;;;;;;;;627645;23;1446;-62
2022/10/11 01:44:34;;;;;;;14.07;2.15;;;;;;;;;;627752;23;1373;-61
2022/10/11 01:44:50;;;;;;;12.25;2.13;;;;;;;;;;626407;23;1506;-61
2022/10/11 01:45:14;;;;;;;17.02;2.30;;;;;;;;;;627845;23;832;-61
2022/10/11 01:45:31;;;;;;;13.65;2.25;;;;;;;;;;627079;23;2113;-62
2022/10/11 01:45:52;;;;;;;11.90;2.65;;;;;;;;;;627043;23;1323;-61
2022/10/11 01:46:09;;;;;;;11.40;2.53;;;;;;;;;;627005;23;1186;-61
2022/10/11 01:46:26;;;;;;;11.10;2.30;;;;;;;;;;624545;23;1292;-61
2022/10/11 01:46:42;;;;;;;10.65;2.40;;;;;;;;;;626042;23;902;-61
2022/10/11 01:46:57;;;;;;;11.40;2.60;;;;;;;;;;626791;23;1032;-61
2022/10/11 01:47:13;;;;;;;12.93;2.67;;;;;;;;;;624696;23;1383;-61
2022/10/11 01:47:28;;;;;;;13.25;2.60;;;;;;;;;;624830;23;955;-61
2022/10/11 01:47:44;;;;;;;13.47;2.50;;;;;;;;;;626700;23;884;-61
2022/10/11 01:48:06;;;;;;;14.07;2.70;;;;;;;;;;624311;23;1045;-61
2022/10/11 01:48:21;;;;;;;10.35;2.20;;;;;;;;;;626639;23;1058;-61
2022/10/11 01:48:52;;;;;;;7.90;2.20;;;;;;;;;;626291;23;869;-61
2022/10/11 01:49:07;;;;;;;10.13;2.22;;;;;;;;;;629263;23;1029;-61
2022/10/11 01:49:23;;;;;;;9.40;2.40;;;;;;;;;;627046;23;1971;-62
2022/10/11 01:49:38;;;;;;;9.17;2.20;;;;;;;;;;627343;23;1052;-61
2022/10/11 01:49:56;;;;;;;10.10;2.00;;;;;;;;;;627457;23;1529;-61
2022/10/11 01:50:33;;;;;;;10.20;2.38;;;;;;;;;;630573;23;1057;-61
2022/10/11 01:50:51;;;;;;;11.18;2.30;;;;;;;;;;628473;23;878;-61
2022/10/11 01:51:08;;;;;;;8.73;2.15;;;;;;;;;;627255;23;1438;-61
2022/10/11 01:51:32;;;;;;;10.02;2.13;;;;;;;;;;629005;23;962;-61
2022/10/11 01:51:50;;;;;;;9.38;2.00;;;;;;;;;;626429;23;922;-61
2022/10/11 01:52:06;;;;;;;8.63;2.13;;;;;;;;;;624684;23;1379;-61
2022/10/11 01:52:22;;;;;;;9.02;2.10;;;;;;;;;;623456;23;1329;-61
2022/10/11 01:52:42;;;;;;;9.05;2.00;;;;;;;;;;623256;23;1450;-61
2022/10/11 01:53:04;;;;;;;9.70;2.20;;;;;;;;;;625730;23;940;-61
2022/10/11 01:54:01;;;;;;;10.25;2.17;;;;;;;;;;628010;23;911;-61
2022/10/11 01:54:47;;;;;;;11.82;2.40;;;;;;;;;;630746;23;1020;-61
2022/10/11 01:55:29;;;;;;;10.88;2.33;;;;;;;;;;634195;23;1018;-62
2022/10/11 01:55:49;;;;;;;9.68;2.20;;;;;;;;;;631809;23;1022;-61
2022/10/11 01:56:20;;;;;;;9.45;2.20;;;;;;;;;;628893;23;1319;-62
2022/10/11 01:56:54;;;;;;;9.75;2.13;;;;;;;;;;629450;23;1233;-61
2022/10/11 01:57:18;;;;;;;9.85;2.20;;;;;;;;;;627665;23;1213;-60
2022/10/11 01:57:45;;;;;;;9.57;2.25;;;;;;;;;;626262;23;1307;-61
2022/10/11 01:58:33;;;;;;;8.30;1.80;;;;;;;;;;627237;23;1351;-62
2022/10/11 01:58:54;;;;;;;12.48;2.45;;;;;;;;;;615830;23;1400;-62
2022/10/11 01:59:30;;;;;;;12.75;2.25;;;;;;;;;;629712;23;1307;-61
2022/10/11 01:59:57;;;;;;;7.43;2.07;;;;;;;;;;627231;23;888;-61
2022/10/11 02:00:19;;;;;;;8.15;1.98;;;;;;;;;;627189;23;1252;-61
2022/10/11 02:00:50;;;;;;;10.07;2.20;;;;;;;;;;623053;23;904;-61
2022/10/11 02:01:39;;;;;;;9.50;2.38;;;;;;;;;;630118;23;876;-61
2022/10/11 02:02:18;;;;;;;9.13;2.05;;;;;;;;;;630241;23;980;-60